Terminal Aerodrome Forecast
Issued by NWS

Home | Current Version | Previous Version | Text Only | Print | Product List | Glossary On
Versions: 1 2 3 4 5 6 7 8 9 10 11 12 13 14
000
FTAK31 PAJN 280500
TAFAGY
TAF
PAGY 280521Z 2806/2906 20017KT P6SM BKN060
     FM280700 21011KT P6SM OVC060
     FM281000 21006KT P6SM BKN070
     FM281500 21006KT P6SM SCT070
     FM281900 21011KT P6SM FEW070
     FM290400 21005KT P6SM FEW070
      AMD LTD TO CLD VIS AND WIND=

USA.gov is the U.S. government's official web portal to all federal, state and local government web resources and services.